sensor_id;sensor_type;location;lat;lon;timestamp;noise_LAeq;noise_LA_min;noise_LA_max;noise_LA01;noise_LA95
67310;Laerm;65444;51.438;5.982;2024-03-29T00:00:07;60.14;40.57;76.98;;
67310;Laerm;65444;51.438;5.982;2024-03-29T00:00:18;55.54;48.97;69.60;;
67310;Laerm;65444;51.438;5.982;2024-03-29T00:00:28;52.15;49.36;59.28;;
67310;Laerm;65444;51.438;5.982;2024-03-29T00:00:39;51.86;49.51;54.74;;
67310;Laerm;65444;51.438;5.982;2024-03-29T00:00:49;49.07;44.89;55.36;;
67310;Laerm;65444;51.438;5.982;2024-03-29T00:01:04;44.31;41.13;52.61;;
67310;Laerm;65444;51.438;5.982;2024-03-29T00:01:15;58.27;38.93;72.11;;
67310;Laerm;65444;51.438;5.982;2024-03-29T00:01:25;38.31;33.68;43.80;;
67310;Laerm;65444;51.438;5.982;2024-03-29T00:01:35;34.05;30.89;43.46;;
67310;Laerm;65444;51.438;5.982;2024-03-29T00:01:46;42.42;30.25;60.16;;
67310;Laerm;65444;51.438;5.982;2024-03-29T00:01:56;33.09;31.07;39.38;;
67310;Laerm;65444;51.438;5.982;2024-03-29T00:02:07;31.38;29.31;36.99;;
67310;Laerm;65444;51.438;5.982;2024-03-29T00:02:18;44.39;29.04;64.74;;
67310;Laerm;65444;51.438;5.982;2024-03-29T00:02:28;33.53;30.82;38.57;;
67310;Laerm;65444;51.438;5.982;2024-03-29T00:02:39;32.18;29.46;38.24;;
67310;Laerm;65444;51.438;5.982;2024-03-29T00:02:49;33.11;29.47;46.50;;
67310;Laerm;65444;51.438;5.982;2024-03-29T00:03:00;31.46;28.93;40.51;;
67310;Laerm;65444;51.438;5.982;2024-03-29T00:03:10;32.81;29.31;43.79;;
67310;Laerm;65444;51.438;5.982;2024-03-29T00:03:21;44.36;29.59;56.79;;
67310;Laerm;65444;51.438;5.982;2024-03-29T00:03:32;43.35;30.12;56.03;;
67310;Laerm;65444;51.438;5.982;2024-03-29T00:03:42;37.86;29.44;53.68;;
67310;Laerm;65444;51.438;5.982;2024-03-29T00:03:54;33.19;28.95;46.90;;
67310;Laerm;65444;51.438;5.982;2024-03-29T00:04:04;40.91;29.95;55.54;;
67310;Laerm;65444;51.438;5.982;2024-03-29T00:04:15;44.76;30.43;58.28;;
67310;Laerm;65444;51.438;5.982;2024-03-29T00:04:25;51.75;30.74;64.00;;
67310;Laerm;65444;51.438;5.982;2024-03-29T00:04:35;34.13;29.27;47.98;;
67310;Laerm;65444;51.438;5.982;2024-03-29T00:04:46;33.23;29.31;43.76;;
67310;Laerm;65444;51.438;5.982;2024-03-29T00:04:56;30.97;28.74;37.65;;
67310;Laerm;65444;51.438;5.982;2024-03-29T00:05:06;30.28;28.72;31.61;;
67310;Laerm;65444;51.438;5.982;2024-03-29T00:05:17;34.89;28.54;51.13;;
67310;Laerm;65444;51.438;5.982;2024-03-29T00:05:27;47.37;30.36;62.50;;
67310;Laerm;65444;51.438;5.982;2024-03-29T00:05:38;31.67;28.81;42.31;;
67310;Laerm;65444;51.438;5.982;2024-03-29T00:05:48;42.60;28.85;57.20;;
67310;Laerm;65444;51.438;5.982;2024-03-29T00:05:59;42.75;28.92;54.58;;
67310;Laerm;65444;51.438;5.982;2024-03-29T00:06:10;38.23;29.35;50.50;;
67310;Laerm;65444;51.438;5.982;2024-03-29T00:06:20;44.14;29.40;59.17;;
67310;Laerm;65444;51.438;5.982;2024-03-29T00:06:31;42.58;30.61;61.15;;
67310;Laerm;65444;51.438;5.982;2024-03-29T00:06:41;33.44;29.98;40.97;;
67310;Laerm;65444;51.438;5.982;2024-03-29T00:06:52;45.75;30.16;60.10;;
67310;Laerm;65444;51.438;5.982;2024-03-29T00:07:02;48.28;29.75;63.87;;
67310;Laerm;65444;51.438;5.982;2024-03-29T00:07:12;53.98;30.19;68.53;;
67310;Laerm;65444;51.438;5.982;2024-03-29T00:07:23;38.07;30.45;50.00;;
67310;Laerm;65444;51.438;5.982;2024-03-29T00:07:33;44.73;29.84;63.36;;
67310;Laerm;65444;51.438;5.982;2024-03-29T00:07:44;40.85;29.31;60.03;;
67310;Laerm;65444;51.438;5.982;2024-03-29T00:07:54;37.00;29.23;49.25;;
67310;Laerm;65444;51.438;5.982;2024-03-29T00:08:05;31.24;29.70;35.82;;
67310;Laerm;65444;51.438;5.982;2024-03-29T00:08:15;51.33;28.97;65.55;;
67310;Laerm;65444;51.438;5.982;2024-03-29T00:08:26;45.03;30.02;56.54;;
67310;Laerm;65444;51.438;5.982;2024-03-29T00:08:37;40.87;29.53;59.14;;
67310;Laerm;65444;51.438;5.982;2024-03-29T00:08:47;47.48;29.98;58.82;;
67310;Laerm;65444;51.438;5.982;2024-03-29T00:08:57;50.80;30.99;67.28;;
67310;Laerm;65444;51.438;5.982;2024-03-29T00:09:08;48.61;30.19;59.74;;
67310;Laerm;65444;51.438;5.982;2024-03-29T00:09:19;40.44;29.94;51.55;;
67310;Laerm;65444;51.438;5.982;2024-03-29T00:09:29;38.25;29.73;52.28;;
67310;Laerm;65444;51.438;5.982;2024-03-29T00:09:43;38.01;30.11;50.67;;
67310;Laerm;65444;51.438;5.982;2024-03-29T00:09:53;38.94;29.82;54.41;;
67310;Laerm;65444;51.438;5.982;2024-03-29T00:10:04;46.38;30.01;59.79;;
67310;Laerm;65444;51.438;5.982;2024-03-29T00:10:14;46.31;30.56;56.57;;
67310;Laerm;65444;51.438;5.982;2024-03-29T00:10:25;43.71;29.79;58.63;;
67310;Laerm;65444;51.438;5.982;2024-03-29T00:10:35;31.80;29.13;41.16;;
67310;Laerm;65444;51.438;5.982;2024-03-29T00:10:49;51.37;30.24;72.08;;
67310;Laerm;65444;51.438;5.982;2024-03-29T00:10:59;42.32;29.89;59.32;;
67310;Laerm;65444;51.438;5.982;2024-03-29T00:11:09;42.13;30.02;62.45;;
67310;Laerm;65444;51.438;5.982;2024-03-29T00:11:20;39.55;29.76;52.63;;
67310;Laerm;65444;51.438;5.982;2024-03-29T00:11:31;39.02;31.13;51.62;;
67310;Laerm;65444;51.438;5.982;2024-03-29T00:11:41;40.99;30.55;54.53;;
67310;Laerm;65444;51.438;5.982;2024-03-29T00:11:52;54.34;33.38;67.97;;
67310;Laerm;65444;51.438;5.982;2024-03-29T00:12:02;37.15;30.25;49.01;;
67310;Laerm;65444;51.438;5.982;2024-03-29T00:12:12;41.52;30.56;56.98;;
67310;Laerm;65444;51.438;5.982;2024-03-29T00:12:23;33.64;30.22;48.19;;
67310;Laerm;65444;51.438;5.982;2024-03-29T00:12:33;36.00;29.27;50.26;;
67310;Laerm;65444;51.438;5.982;2024-03-29T00:12:44;31.80;29.66;41.51;;
67310;Laerm;65444;51.438;5.982;2024-03-29T00:12:54;32.26;29.71;38.29;;
67310;Laerm;65444;51.438;5.982;2024-03-29T00:13:04;31.35;29.12;35.81;;
67310;Laerm;65444;51.438;5.982;2024-03-29T00:13:15;31.99;29.73;40.02;;
67310;Laerm;65444;51.438;5.982;2024-03-29T00:13:25;34.99;29.78;47.45;;
67310;Laerm;65444;51.438;5.982;2024-03-29T00:13:36;45.94;29.16;62.80;;
67310;Laerm;65444;51.438;5.982;2024-03-29T00:13:46;31.75;29.47;37.52;;
67310;Laerm;65444;51.438;5.982;2024-03-29T00:13:57;46.66;30.57;63.81;;
67310;Laerm;65444;51.438;5.982;2024-03-29T00:14:07;46.24;30.81;57.76;;
67310;Laerm;65444;51.438;5.982;2024-03-29T00:14:17;43.89;30.75;58.40;;
67310;Laerm;65444;51.438;5.982;2024-03-29T00:14:28;34.29;30.08;46.69;;
67310;Laerm;65444;51.438;5.982;2024-03-29T00:14:42;31.84;29.78;35.87;;
67310;Laerm;65444;51.438;5.982;2024-03-29T00:14:53;41.17;30.95;53.55;;
67310;Laerm;65444;51.438;5.982;2024-03-29T00:15:05;35.84;31.41;48.39;;
67310;Laerm;65444;51.438;5.982;2024-03-29T00:15:17;40.14;35.02;47.07;;
67310;Laerm;65444;51.438;5.982;2024-03-29T00:15:28;49.04;44.17;52.98;;
67310;Laerm;65444;51.438;5.982;2024-03-29T00:15:39;51.84;48.33;55.25;;
67310;Laerm;65444;51.438;5.982;2024-03-29T00:15:49;53.31;50.75;55.89;;
67310;Laerm;65444;51.438;5.982;2024-03-29T00:16:00;52.29;49.25;54.62;;
67310;Laerm;65444;51.438;5.982;2024-03-29T00:16:10;50.00;43.59;58.41;;
67310;Laerm;65444;51.438;5.982;2024-03-29T00:16:22;43.76;38.99;51.03;;
67310;Laerm;65444;51.438;5.982;2024-03-29T00:16:35;38.42;34.72;42.46;;
67310;Laerm;65444;51.438;5.982;2024-03-29T00:16:45;34.60;31.56;39.10;;
67310;Laerm;65444;51.438;5.982;2024-03-29T00:16:56;32.43;30.09;36.64;;
67310;Laerm;65444;51.438;5.982;2024-03-29T00:17:07;39.08;29.68;52.97;;
67310;Laerm;65444;51.438;5.982;2024-03-29T00:17:17;34.91;28.27;47.70;;
67310;Laerm;65444;51.438;5.982;2024-03-29T00:17:28;30.44;28.73;35.76;;
67310;Laerm;65444;51.438;5.982;2024-03-29T00:17:39;33.10;29.04;48.69;;
67310;Laerm;65444;51.438;5.982;2024-03-29T00:17:50;30.95;28.63;38.05;;
67310;Laerm;65444;51.438;5.982;2024-03-29T00:18:01;30.44;28.78;32.26;;
67310;Laerm;65444;51.438;5.982;2024-03-29T00:18:11;30.17;28.66;32.71;;
67310;Laerm;65444;51.438;5.982;2024-03-29T00:18:21;30.67;28.15;43.60;;
67310;Laerm;65444;51.438;5.982;2024-03-29T00:18:34;30.36;28.75;34.93;;
67310;Laerm;65444;51.438;5.982;2024-03-29T00:18:44;29.93;28.42;31.70;;
67310;Laerm;65444;51.438;5.982;2024-03-29T00:18:54;30.88;28.77;36.98;;
67310;Laerm;65444;51.438;5.982;2024-03-29T00:19:06;31.49;28.64;38.97;;
67310;Laerm;65444;51.438;5.982;2024-03-29T00:19:16;35.15;28.80;46.72;;
67310;Laerm;65444;51.438;5.982;2024-03-29T00:19:26;38.43;29.77;50.17;;
67310;Laerm;65444;51.438;5.982;2024-03-29T00:19:37;43.44;29.33;57.80;;
67310;Laerm;65444;51.438;5.982;2024-03-29T00:19:47;33.21;29.13;44.70;;
67310;Laerm;65444;51.438;5.982;2024-03-29T00:19:58;36.30;28.62;51.81;;
67310;Laerm;65444;51.438;5.982;2024-03-29T00:20:08;44.30;30.17;61.52;;
67310;Laerm;65444;51.438;5.982;2024-03-29T00:20:19;39.52;28.93;52.05;;
67310;Laerm;65444;51.438;5.982;2024-03-29T00:20:31;33.76;28.93;48.79;;
67310;Laerm;65444;51.438;5.982;2024-03-29T00:20:41;43.36;30.08;58.44;;
67310;Laerm;65444;51.438;5.982;2024-03-29T00:20:52;46.73;30.50;59.16;;
67310;Laerm;65444;51.438;5.982;2024-03-29T00:21:02;52.19;30.87;63.01;;
67310;Laerm;65444;51.438;5.982;2024-03-29T00:21:13;32.91;31.14;36.40;;
67310;Laerm;65444;51.438;5.982;2024-03-29T00:21:24;37.67;29.62;49.78;;
67310;Laerm;65444;51.438;5.982;2024-03-29T00:21:34;34.62;29.69;47.47;;
67310;Laerm;65444;51.438;5.982;2024-03-29T00:21:45;30.62;29.07;32.70;;
67310;Laerm;65444;51.438;5.982;2024-03-29T00:21:56;37.68;29.09;48.99;;
67310;Laerm;65444;51.438;5.982;2024-03-29T00:22:06;33.84;29.99;44.25;;
67310;Laerm;65444;51.438;5.982;2024-03-29T00:22:19;30.37;28.67;32.16;;
67310;Laerm;65444;51.438;5.982;2024-03-29T00:22:30;33.32;28.75;51.33;;
67310;Laerm;65444;51.438;5.982;2024-03-29T00:22:40;32.32;28.66;51.76;;
67310;Laerm;65444;51.438;5.982;2024-03-29T00:22:51;40.75;28.41;55.94;;
67310;Laerm;65444;51.438;5.982;2024-03-29T00:23:01;40.26;29.24;55.38;;
67310;Laerm;65444;51.438;5.982;2024-03-29T00:23:11;37.96;29.23;47.42;;
67310;Laerm;65444;51.438;5.982;2024-03-29T00:23:22;37.75;29.43;51.52;;
67310;Laerm;65444;51.438;5.982;2024-03-29T00:23:32;33.95;28.89;43.96;;
67310;Laerm;65444;51.438;5.982;2024-03-29T00:23:43;31.72;29.05;41.04;;
67310;Laerm;65444;51.438;5.982;2024-03-29T00:23:55;46.83;30.22;56.55;;
67310;Laerm;65444;51.438;5.982;2024-03-29T00:24:05;30.77;28.67;35.54;;
67310;Laerm;65444;51.438;5.982;2024-03-29T00:24:16;40.70;29.25;55.95;;
67310;Laerm;65444;51.438;5.982;2024-03-29T00:24:26;45.98;29.41;55.49;;
67310;Laerm;65444;51.438;5.982;2024-03-29T00:24:36;46.37;29.53;61.39;;
67310;Laerm;65444;51.438;5.982;2024-03-29T00:24:50;51.67;29.61;66.77;;
67310;Laerm;65444;51.438;5.982;2024-03-29T00:25:00;31.26;28.74;36.51;;
67310;Laerm;65444;51.438;5.982;2024-03-29T00:25:10;35.50;28.73;46.41;;
67310;Laerm;65444;51.438;5.982;2024-03-29T00:25:21;30.31;28.26;35.66;;
67310;Laerm;65444;51.438;5.982;2024-03-29T00:25:34;30.05;28.30;31.96;;
67310;Laerm;65444;51.438;5.982;2024-03-29T00:25:47;39.50;29.35;55.46;;
67310;Laerm;65444;51.438;5.982;2024-03-29T00:25:58;45.20;30.83;60.43;;
67310;Laerm;65444;51.438;5.982;2024-03-29T00:26:08;46.93;29.93;58.24;;
67310;Laerm;65444;51.438;5.982;2024-03-29T00:26:19;38.87;29.62;53.95;;
67310;Laerm;65444;51.438;5.982;2024-03-29T00:26:29;31.18;28.64;40.99;;
67310;Laerm;65444;51.438;5.982;2024-03-29T00:26:40;30.03;28.41;32.43;;
67310;Laerm;65444;51.438;5.982;2024-03-29T00:26:50;30.06;28.58;31.44;;
67310;Laerm;65444;51.438;5.982;2024-03-29T00:27:01;30.19;28.51;37.77;;
67310;Laerm;65444;51.438;5.982;2024-03-29T00:27:13;42.93;28.64;59.58;;
67310;Laerm;65444;51.438;5.982;2024-03-29T00:27:23;37.64;29.17;54.89;;
67310;Laerm;65444;51.438;5.982;2024-03-29T00:27:36;38.33;29.14;55.30;;
67310;Laerm;65444;51.438;5.982;2024-03-29T00:27:47;40.53;29.79;53.85;;
67310;Laerm;65444;51.438;5.982;2024-03-29T00:27:58;33.49;30.56;42.80;;
67310;Laerm;65444;51.438;5.982;2024-03-29T00:28:08;31.99;29.01;39.60;;
67310;Laerm;65444;51.438;5.982;2024-03-29T00:28:19;35.88;29.33;50.80;;
67310;Laerm;65444;51.438;5.982;2024-03-29T00:28:29;35.11;29.27;47.27;;
67310;Laerm;65444;51.438;5.982;2024-03-29T00:28:40;36.24;29.15;50.86;;
67310;Laerm;65444;51.438;5.982;2024-03-29T00:28:50;39.45;29.94;50.74;;
67310;Laerm;65444;51.438;5.982;2024-03-29T00:29:01;36.82;30.43;48.32;;
67310;Laerm;65444;51.438;5.982;2024-03-29T00:29:11;30.88;28.76;36.27;;
67310;Laerm;65444;51.438;5.982;2024-03-29T00:29:22;34.48;29.06;44.78;;
67310;Laerm;65444;51.438;5.982;2024-03-29T00:29:33;31.47;28.60;40.04;;
67310;Laerm;65444;51.438;5.982;2024-03-29T00:29:44;31.34;28.69;42.34;;
67310;Laerm;65444;51.438;5.982;2024-03-29T00:29:57;30.89;29.00;35.44;;
67310;Laerm;65444;51.438;5.982;2024-03-29T00:30:07;31.37;28.82;42.39;;
67310;Laerm;65444;51.438;5.982;2024-03-29T00:30:17;30.56;28.79;36.30;;
67310;Laerm;65444;51.438;5.982;2024-03-29T00:30:28;47.82;28.86;66.79;;
67310;Laerm;65444;51.438;5.982;2024-03-29T00:30:39;48.02;30.63;62.95;;
67310;Laerm;65444;51.438;5.982;2024-03-29T00:30:49;46.09;30.18;61.16;;
67310;Laerm;65444;51.438;5.982;2024-03-29T00:30:59;48.50;29.85;62.56;;
67310;Laerm;65444;51.438;5.982;2024-03-29T00:31:10;41.14;30.85;49.95;;
67310;Laerm;65444;51.438;5.982;2024-03-29T00:31:20;42.27;30.05;58.32;;
67310;Laerm;65444;51.438;5.982;2024-03-29T00:31:31;36.53;29.26;49.69;;
67310;Laerm;65444;51.438;5.982;2024-03-29T00:31:41;33.64;29.38;47.68;;
67310;Laerm;65444;51.438;5.982;2024-03-29T00:31:52;40.80;29.04;56.01;;
67310;Laerm;65444;51.438;5.982;2024-03-29T00:32:02;34.38;29.02;47.32;;
67310;Laerm;65444;51.438;5.982;2024-03-29T00:32:13;31.18;29.23;32.90;;
67310;Laerm;65444;51.438;5.982;2024-03-29T00:32:25;33.77;30.17;44.22;;
67310;Laerm;65444;51.438;5.982;2024-03-29T00:32:35;33.69;29.56;43.95;;
67310;Laerm;65444;51.438;5.982;2024-03-29T00:32:46;34.88;29.26;50.16;;
67310;Laerm;65444;51.438;5.982;2024-03-29T00:32:56;43.11;29.99;58.44;;
67310;Laerm;65444;51.438;5.982;2024-03-29T00:33:07;33.70;29.66;46.23;;
67310;Laerm;65444;51.438;5.982;2024-03-29T00:33:18;34.11;29.52;46.00;;
67310;Laerm;65444;51.438;5.982;2024-03-29T00:33:31;33.56;29.25;46.11;;
67310;Laerm;65444;51.438;5.982;2024-03-29T00:33:41;31.04;29.01;37.70;;
67310;Laerm;65444;51.438;5.982;2024-03-29T00:33:52;31.52;28.85;42.88;;
67310;Laerm;65444;51.438;5.982;2024-03-29T00:34:02;31.68;28.72;42.04;;
67310;Laerm;65444;51.438;5.982;2024-03-29T00:34:13;31.28;29.38;33.40;;
67310;Laerm;65444;51.438;5.982;2024-03-29T00:34:23;32.93;30.85;37.19;;
67310;Laerm;65444;51.438;5.982;2024-03-29T00:34:33;38.00;30.45;52.92;;
67310;Laerm;65444;51.438;5.982;2024-03-29T00:34:44;32.93;30.56;36.15;;
67310;Laerm;65444;51.438;5.982;2024-03-29T00:34:55;32.10;29.76;38.53;;
67310;Laerm;65444;51.438;5.982;2024-03-29T00:35:08;36.15;29.61;51.29;;
67310;Laerm;65444;51.438;5.982;2024-03-29T00:35:19;32.12;29.88;35.40;;
67310;Laerm;65444;51.438;5.982;2024-03-29T00:35:31;32.28;29.75;38.39;;
67310;Laerm;65444;51.438;5.982;2024-03-29T00:35:41;31.67;29.88;33.66;;
67310;Laerm;65444;51.438;5.982;2024-03-29T00:35:52;48.85;30.25;65.72;;
67310;Laerm;65444;51.438;5.982;2024-03-29T00:36:02;54.92;33.24;68.39;;
67310;Laerm;65444;51.438;5.982;2024-03-29T00:36:13;52.67;30.69;66.65;;
67310;Laerm;65444;51.438;5.982;2024-03-29T00:36:24;36.12;30.73;48.42;;
67310;Laerm;65444;51.438;5.982;2024-03-29T00:36:34;41.02;29.98;58.53;;
67310;Laerm;65444;51.438;5.982;2024-03-29T00:36:47;45.78;30.07;59.49;;
67310;Laerm;65444;51.438;5.982;2024-03-29T00:36:58;37.26;30.17;51.42;;
67310;Laerm;65444;51.438;5.982;2024-03-29T00:37:08;40.08;31.74;47.19;;
67310;Laerm;65444;51.438;5.982;2024-03-29T00:37:19;48.43;34.42;63.58;;
67310;Laerm;65444;51.438;5.982;2024-03-29T00:37:29;49.92;32.14;62.34;;
67310;Laerm;65444;51.438;5.982;2024-03-29T00:37:40;33.54;30.83;40.04;;
67310;Laerm;65444;51.438;5.982;2024-03-29T00:37:50;40.66;31.44;55.71;;
67310;Laerm;65444;51.438;5.982;2024-03-29T00:38:01;33.47;30.12;37.76;;
67310;Laerm;65444;51.438;5.982;2024-03-29T00:38:11;33.18;30.30;41.62;;
67310;Laerm;65444;51.438;5.982;2024-03-29T00:38:22;35.29;30.13;48.01;;
67310;Laerm;65444;51.438;5.982;2024-03-29T00:38:35;51.05;31.13;64.05;;
67310;Laerm;65444;51.438;5.982;2024-03-29T00:38:45;40.54;30.90;55.01;;
67310;Laerm;65444;51.438;5.982;2024-03-29T00:38:55;43.47;32.44;53.12;;
67310;Laerm;65444;51.438;5.982;2024-03-29T00:39:06;42.31;32.72;55.59;;
67310;Laerm;65444;51.438;5.982;2024-03-29T00:39:21;35.93;31.81;47.49;;
67310;Laerm;65444;51.438;5.982;2024-03-29T00:39:32;51.37;32.64;65.31;;
67310;Laerm;65444;51.438;5.982;2024-03-29T00:39:42;44.69;32.64;61.73;;
67310;Laerm;65444;51.438;5.982;2024-03-29T00:39:53;43.88;31.00;59.87;;
67310;Laerm;65444;51.438;5.982;2024-03-29T00:40:03;44.29;31.15;57.92;;
67310;Laerm;65444;51.438;5.982;2024-03-29T00:40:15;52.37;32.85;65.41;;
67310;Laerm;65444;51.438;5.982;2024-03-29T00:40:26;46.76;31.81;61.25;;
67310;Laerm;65444;51.438;5.982;2024-03-29T00:40:36;38.03;31.03;46.81;;
67310;Laerm;65444;51.438;5.982;2024-03-29T00:40:46;38.59;31.04;52.51;;
67310;Laerm;65444;51.438;5.982;2024-03-29T00:40:57;47.07;31.88;62.45;;
67310;Laerm;65444;51.438;5.982;2024-03-29T00:41:07;42.34;31.25;57.16;;
67310;Laerm;65444;51.438;5.982;2024-03-29T00:41:18;44.63;30.89;59.22;;
67310;Laerm;65444;51.438;5.982;2024-03-29T00:41:28;33.25;30.29;42.11;;
67310;Laerm;65444;51.438;5.982;2024-03-29T00:41:38;32.87;31.28;35.46;;
67310;Laerm;65444;51.438;5.982;2024-03-29T00:41:49;45.70;30.74;55.61;;
67310;Laerm;65444;51.438;5.982;2024-03-29T00:41:59;33.35;30.85;37.75;;
67310;Laerm;65444;51.438;5.982;2024-03-29T00:42:09;41.44;33.39;48.27;;
67310;Laerm;65444;51.438;5.982;2024-03-29T00:42:23;41.41;33.23;51.84;;
67310;Laerm;65444;51.438;5.982;2024-03-29T00:42:34;36.58;31.65;51.18;;
67310;Laerm;65444;51.438;5.982;2024-03-29T00:42:45;34.57;31.97;41.42;;
67310;Laerm;65444;51.438;5.982;2024-03-29T00:42:55;33.08;30.64;35.02;;
67310;Laerm;65444;51.438;5.982;2024-03-29T00:43:08;37.52;33.61;42.92;;
67310;Laerm;65444;51.438;5.982;2024-03-29T00:43:19;42.83;32.85;57.05;;
67310;Laerm;65444;51.438;5.982;2024-03-29T00:43:29;50.75;31.63;69.08;;
67310;Laerm;65444;51.438;5.982;2024-03-29T00:43:39;49.33;32.39;61.05;;
67310;Laerm;65444;51.438;5.982;2024-03-29T00:43:50;46.26;32.17;59.44;;
67310;Laerm;65444;51.438;5.982;2024-03-29T00:44:01;43.83;30.95;64.22;;
67310;Laerm;65444;51.438;5.982;2024-03-29T00:44:11;33.37;31.54;37.07;;
67310;Laerm;65444;51.438;5.982;2024-03-29T00:44:22;39.96;33.52;45.78;;
67310;Laerm;65444;51.438;5.982;2024-03-29T00:44:32;44.17;39.62;50.76;;
67310;Laerm;65444;51.438;5.982;2024-03-29T00:44:42;53.25;45.51;56.72;;
67310;Laerm;65444;51.438;5.982;2024-03-29T00:44:53;56.24;52.95;60.43;;
67310;Laerm;65444;51.438;5.982;2024-03-29T00:45:03;55.06;50.44;60.76;;
67310;Laerm;65444;51.438;5.982;2024-03-29T00:45:14;53.32;49.71;63.46;;
67310;Laerm;65444;51.438;5.982;2024-03-29T00:45:25;51.49;46.07;56.70;;
67310;Laerm;65444;51.438;5.982;2024-03-29T00:45:36;45.74;40.45;52.18;;
67310;Laerm;65444;51.438;5.982;2024-03-29T00:45:47;40.08;36.69;45.51;;
67310;Laerm;65444;51.438;5.982;2024-03-29T00:45:57;40.84;35.85;56.98;;
67310;Laerm;65444;51.438;5.982;2024-03-29T00:46:07;40.25;33.13;54.19;;
67310;Laerm;65444;51.438;5.982;2024-03-29T00:46:18;35.38;32.40;40.46;;
67310;Laerm;65444;51.438;5.982;2024-03-29T00:46:28;35.26;32.82;42.87;;
67310;Laerm;65444;51.438;5.982;2024-03-29T00:46:47;35.86;32.72;45.32;;
67310;Laerm;65444;51.438;5.982;2024-03-29T00:46:57;38.77;31.09;51.39;;
67310;Laerm;65444;51.438;5.982;2024-03-29T00:47:08;44.20;31.12;56.89;;
67310;Laerm;65444;51.438;5.982;2024-03-29T00:47:18;59.09;34.34;76.24;;
67310;Laerm;65444;51.438;5.982;2024-03-29T00:47:29;54.60;32.43;71.39;;
67310;Laerm;65444;51.438;5.982;2024-03-29T00:47:40;50.89;33.79;63.38;;
67310;Laerm;65444;51.438;5.982;2024-03-29T00:47:50;52.48;32.87;69.77;;
67310;Laerm;65444;51.438;5.982;2024-03-29T00:48:01;49.60;33.22;61.96;;
67310;Laerm;65444;51.438;5.982;2024-03-29T00:48:11;37.86;32.07;47.97;;
67310;Laerm;65444;51.438;5.982;2024-03-29T00:48:21;33.49;31.36;39.95;;
67310;Laerm;65444;51.438;5.982;2024-03-29T00:48:32;38.09;32.27;51.50;;
67310;Laerm;65444;51.438;5.982;2024-03-29T00:48:42;38.21;31.96;56.33;;
67310;Laerm;65444;51.438;5.982;2024-03-29T00:48:56;50.66;32.19;65.80;;
67310;Laerm;65444;51.438;5.982;2024-03-29T00:49:06;37.63;31.48;52.66;;
67310;Laerm;65444;51.438;5.982;2024-03-29T00:49:17;44.32;31.89;56.76;;
67310;Laerm;65444;51.438;5.982;2024-03-29T00:49:27;52.20;32.59;64.18;;
67310;Laerm;65444;51.438;5.982;2024-03-29T00:49:37;53.26;32.46;68.52;;
67310;Laerm;65444;51.438;5.982;2024-03-29T00:49:48;49.02;32.93;59.69;;
67310;Laerm;65444;51.438;5.982;2024-03-29T00:49:58;40.25;32.11;49.66;;
67310;Laerm;65444;51.438;5.982;2024-03-29T00:50:09;35.76;31.57;47.16;;
67310;Laerm;65444;51.438;5.982;2024-03-29T00:50:20;49.18;31.62;63.27;;
67310;Laerm;65444;51.438;5.982;2024-03-29T00:50:30;44.35;31.91;57.29;;
67310;Laerm;65444;51.438;5.982;2024-03-29T00:50:41;56.14;34.31;67.98;;
67310;Laerm;65444;51.438;5.982;2024-03-29T00:50:51;46.16;32.90;56.97;;
67310;Laerm;65444;51.438;5.982;2024-03-29T00:51:02;48.68;32.67;61.32;;
67310;Laerm;65444;51.438;5.982;2024-03-29T00:51:13;48.26;32.48;65.26;;
67310;Laerm;65444;51.438;5.982;2024-03-29T00:51:23;34.99;32.36;43.35;;
67310;Laerm;65444;51.438;5.982;2024-03-29T00:51:33;34.73;32.78;38.58;;
67310;Laerm;65444;51.438;5.982;2024-03-29T00:51:44;37.28;33.02;46.55;;
67310;Laerm;65444;51.438;5.982;2024-03-29T00:51:54;52.31;38.92;62.99;;
67310;Laerm;65444;51.438;5.982;2024-03-29T00:52:05;53.13;45.99;64.85;;
67310;Laerm;65444;51.438;5.982;2024-03-29T00:52:15;56.71;52.53;67.65;;
67310;Laerm;65444;51.438;5.982;2024-03-29T00:52:26;53.65;50.82;57.65;;
67310;Laerm;65444;51.438;5.982;2024-03-29T00:52:36;52.73;48.73;62.34;;
67310;Laerm;65444;51.438;5.982;2024-03-29T00:52:47;48.58;42.98;57.58;;
67310;Laerm;65444;51.438;5.982;2024-03-29T00:52:58;44.55;40.38;52.38;;
67310;Laerm;65444;51.438;5.982;2024-03-29T00:53:08;43.73;38.33;58.48;;
67310;Laerm;65444;51.438;5.982;2024-03-29T00:53:19;37.53;34.32;40.11;;
67310;Laerm;65444;51.438;5.982;2024-03-29T00:53:29;35.59;33.20;37.73;;
67310;Laerm;65444;51.438;5.982;2024-03-29T00:53:40;36.74;33.91;45.49;;
67310;Laerm;65444;51.438;5.982;2024-03-29T00:53:50;45.10;35.35;59.04;;
67310;Laerm;65444;51.438;5.982;2024-03-29T00:54:01;47.35;34.14;59.95;;
67310;Laerm;65444;51.438;5.982;2024-03-29T00:54:11;37.55;32.68;48.07;;
67310;Laerm;65444;51.438;5.982;2024-03-29T00:54:21;42.42;32.63;55.48;;
67310;Laerm;65444;51.438;5.982;2024-03-29T00:54:33;42.76;32.51;54.64;;
67310;Laerm;65444;51.438;5.982;2024-03-29T00:54:44;64.28;37.53;75.15;;
67310;Laerm;65444;51.438;5.982;2024-03-29T00:54:55;53.97;35.23;66.62;;
67310;Laerm;65444;51.438;5.982;2024-03-29T00:55:05;50.24;34.72;62.32;;
67310;Laerm;65444;51.438;5.982;2024-03-29T00:55:16;49.88;34.80;62.44;;
67310;Laerm;65444;51.438;5.982;2024-03-29T00:55:27;45.08;32.28;58.65;;
67310;Laerm;65444;51.438;5.982;2024-03-29T00:55:37;34.10;31.41;40.49;;
67310;Laerm;65444;51.438;5.982;2024-03-29T00:55:47;48.36;31.34;62.94;;
67310;Laerm;65444;51.438;5.982;2024-03-29T00:55:58;34.37;31.94;36.81;;
67310;Laerm;65444;51.438;5.982;2024-03-29T00:56:08;53.11;32.52;67.85;;
67310;Laerm;65444;51.438;5.982;2024-03-29T00:56:21;56.09;36.08;70.80;;
67310;Laerm;65444;51.438;5.982;2024-03-29T00:56:32;39.93;34.53;54.98;;
67310;Laerm;65444;51.438;5.982;2024-03-29T00:56:42;36.79;33.80;45.91;;
67310;Laerm;65444;51.438;5.982;2024-03-29T00:56:53;44.89;32.61;58.00;;
67310;Laerm;65444;51.438;5.982;2024-03-29T00:57:03;49.64;33.50;61.47;;
67310;Laerm;65444;51.438;5.982;2024-03-29T00:57:14;35.40;31.73;50.01;;
67310;Laerm;65444;51.438;5.982;2024-03-29T00:57:25;33.97;31.21;41.79;;
67310;Laerm;65444;51.438;5.982;2024-03-29T00:57:36;34.70;31.86;44.51;;
67310;Laerm;65444;51.438;5.982;2024-03-29T00:57:47;48.42;32.02;67.36;;
67310;Laerm;65444;51.438;5.982;2024-03-29T00:57:57;50.96;32.85;63.84;;
67310;Laerm;65444;51.438;5.982;2024-03-29T00:58:07;40.17;31.68;56.22;;
67310;Laerm;65444;51.438;5.982;2024-03-29T00:58:20;36.78;32.14;46.41;;
67310;Laerm;65444;51.438;5.982;2024-03-29T00:58:31;42.93;31.70;58.88;;
67310;Laerm;65444;51.438;5.982;2024-03-29T00:58:41;50.40;32.64;63.10;;
67310;Laerm;65444;51.438;5.982;2024-03-29T00:59:23;52.93;34.99;70.58;;
67310;Laerm;65444;51.438;5.982;2024-03-29T00:59:34;44.53;34.19;57.57;;
67310;Laerm;65444;51.438;5.982;2024-03-29T00:59:44;37.17;33.85;47.06;;
67310;Laerm;65444;51.438;5.982;2024-03-29T00:59:55;40.66;33.68;53.11;;
67310;Laerm;65444;51.438;5.982;2024-03-29T01:00:07;42.05;34.08;52.29;;
67310;Laerm;65444;51.438;5.982;2024-03-29T01:00:20;38.79;34.03;50.33;;
67310;Laerm;65444;51.438;5.982;2024-03-29T01:00:31;38.16;34.16;50.79;;
67310;Laerm;65444;51.438;5.982;2024-03-29T01:00:41;37.77;33.35;52.33;;
67310;Laerm;65444;51.438;5.982;2024-03-29T01:00:52;38.54;34.22;47.44;;